Terminal Aerodrome Forecast
Issued by NWS Jackson, MS

Home | Current Version | Previous Version | Text Only | Print | Product List | Glossary On
Versions: 1 2 3 4 5 6 7 8 9 10 11 12 13 14 15 16 17
225
FTUS44 KJAN 230650 AAA
TAFHBG
TAF AMD
KHBG 230650Z 2307/2406 06004KT 4SM RA BR SCT008 BKN025
     FM230900 03003KT 4SM BR SCT008 BKN015
     FM231700 32006KT P6SM BKN040=

USA.gov is the U.S. government's official web portal to all federal, state and local government web resources and services.